createdAt,value
2023-03-19T00:02:16.337Z,12.42
2023-03-19T00:04:49.702Z,12.31
2023-03-19T00:07:19.592Z,12.23
2023-03-19T00:09:49.150Z,12.28
2023-03-19T00:12:18.875Z,12.38
2023-03-19T00:14:48.432Z,12.17
2023-03-19T00:17:18.028Z,12.35
2023-03-19T00:19:51.403Z,12.44
2023-03-19T00:22:20.986Z,12.32
2023-03-19T00:24:50.574Z,12.39
2023-03-19T00:27:20.149Z,12.33
2023-03-19T00:29:50.134Z,12.34
2023-03-19T00:32:20.204Z,12.34
2023-03-19T00:34:52.995Z,12.35
2023-03-19T00:37:22.605Z,12.27
2023-03-19T00:39:52.152Z,12.07
2023-03-19T00:42:22.152Z,12.13
2023-03-19T00:44:51.769Z,12.12
2023-03-19T00:47:21.366Z,11.93
2023-03-19T00:49:53.577Z,12.02
2023-03-19T00:52:23.173Z,11.91
2023-03-19T00:54:52.940Z,11.69
2023-03-19T00:57:22.547Z,11.76
2023-03-19T00:59:53.880Z,11.76
2023-03-19T01:02:23.556Z,11.74
2023-03-19T01:04:55.900Z,11.66
2023-03-19T01:07:25.667Z,11.73
2023-03-19T01:09:55.486Z,11.76
2023-03-19T01:12:25.076Z,11.63
2023-03-19T01:14:54.910Z,11.72
2023-03-19T01:17:24.531Z,11.63
2023-03-19T01:19:57.175Z,11.67
2023-03-19T01:22:27.642Z,11.63
2023-03-19T01:25:01.628Z,11.45
2023-03-19T01:27:31.312Z,11.57
2023-03-19T01:30:01.399Z,11.55
2023-03-19T01:32:53.979Z,11.39
2023-03-19T01:35:48.206Z,11.25
2023-03-19T01:38:19.733Z,11.38
2023-03-19T01:40:51.049Z,11.40
2023-03-19T01:43:23.254Z,11.36
2023-03-19T01:46:04.407Z,11.32
2023-03-19T01:49:00.335Z,11.28
2023-03-19T01:51:37.410Z,11.21
2023-03-19T01:54:35.229Z,11.21
2023-03-19T01:57:25.662Z,11.19
2023-03-19T02:00:01.298Z,11.22
2023-03-19T02:02:47.539Z,11.14
2023-03-19T02:05:49.052Z,10.97
2023-03-19T02:08:23.368Z,11.12
2023-03-19T02:10:56.057Z,11.09
2023-03-19T02:13:26.455Z,10.95
2023-03-19T02:15:57.243Z,11.10
2023-03-19T02:18:28.297Z,11.06
2023-03-19T02:21:03.322Z,10.92
2023-03-19T02:23:42.350Z,10.82
2023-03-19T02:26:21.757Z,10.76
2023-03-19T02:28:55.313Z,10.70
2023-03-19T02:31:30.739Z,10.59
2023-03-19T02:34:02.859Z,10.72
2023-03-19T02:36:37.600Z,10.71
2023-03-19T02:39:11.398Z,10.67
2023-03-19T02:41:44.944Z,10.67
2023-03-19T02:44:15.747Z,10.74
2023-03-19T02:46:45.551Z,10.70
2023-03-19T02:49:15.390Z,10.74
2023-03-19T02:51:45.040Z,10.75
2023-03-19T02:54:14.670Z,10.58
2023-03-19T02:56:46.946Z,10.54
2023-03-19T02:59:16.557Z,10.39
2023-03-19T03:01:46.370Z,10.24
2023-03-19T03:04:16.798Z,10.27
2023-03-19T03:06:47.696Z,10.17
2023-03-19T03:09:18.426Z,10.09
2023-03-19T03:11:51.160Z,10.27
2023-03-19T03:14:20.813Z,10.32
2023-03-19T03:16:50.970Z,10.33
2023-03-19T03:19:21.731Z,10.42
2023-03-19T03:21:52.088Z,10.35
2023-03-19T03:24:22.107Z,10.48
2023-03-19T03:26:54.322Z,10.54
2023-03-19T03:29:24.178Z,10.44
2023-03-19T03:31:53.927Z,10.48
2023-03-19T03:34:23.649Z,10.49
2023-03-19T03:36:53.406Z,10.32
2023-03-19T03:39:23.185Z,10.49
2023-03-19T03:41:55.501Z,10.57
2023-03-19T03:44:25.528Z,10.54
2023-03-19T03:46:55.224Z,10.51
2023-03-19T03:49:25.333Z,10.44
2023-03-19T03:51:55.752Z,10.42
2023-03-19T03:54:25.498Z,10.47
2023-03-19T03:56:57.758Z,10.53
2023-03-19T03:59:27.662Z,10.52
2023-03-19T04:01:57.345Z,10.47
2023-03-19T04:04:27.132Z,10.38
2023-03-19T04:06:56.796Z,10.37
2023-03-19T04:09:37.249Z,10.49
2023-03-19T04:12:11.236Z,10.51
2023-03-19T04:14:41.004Z,10.49
2023-03-19T04:17:11.780Z,10.48
2023-03-19T04:19:43.408Z,10.44
2023-03-19T04:22:13.098Z,10.57
2023-03-19T04:24:42.785Z,10.55
2023-03-19T04:27:15.568Z,10.55
2023-03-19T04:29:45.484Z,10.53
2023-03-19T04:32:15.947Z,10.50
2023-03-19T04:34:45.853Z,10.50
2023-03-19T04:37:15.511Z,10.52
2023-03-19T04:39:51.510Z,10.39
2023-03-19T04:42:24.921Z,10.64
2023-03-19T04:45:17.865Z,10.56
2023-03-19T04:47:47.574Z,10.56
2023-03-19T04:50:18.173Z,10.56
2023-03-19T04:52:48.207Z,10.42
2023-03-19T04:55:18.609Z,10.50
2023-03-19T04:57:59.135Z,10.52
2023-03-19T05:00:32.157Z,10.47
2023-03-19T05:03:02.333Z,10.45
2023-03-19T05:05:34.089Z,10.37
2023-03-19T05:08:08.749Z,10.31
2023-03-19T05:10:39.229Z,10.33
2023-03-19T05:13:11.469Z,10.33
2023-03-19T05:15:46.589Z,10.30
2023-03-19T05:18:17.070Z,10.47
2023-03-19T05:20:47.557Z,10.56
2023-03-19T05:23:23.749Z,10.61
2023-03-19T05:26:08.560Z,10.64
2023-03-19T05:29:03.886Z,10.66
2023-03-19T05:31:46.239Z,10.65
2023-03-19T05:34:16.088Z,10.67
2023-03-19T05:36:45.756Z,10.40
2023-03-19T05:39:19.877Z,10.67
2023-03-19T05:41:49.938Z,10.53
2023-03-19T05:44:26.456Z,10.53
2023-03-19T05:47:16.468Z,10.62
2023-03-19T05:49:52.160Z,10.63
2023-03-19T05:52:22.188Z,10.69
2023-03-19T05:54:52.573Z,10.69
2023-03-19T05:57:42.512Z,10.36
2023-03-19T06:00:21.293Z,10.64
2023-03-19T06:02:51.723Z,10.54
2023-03-19T06:05:44.315Z,10.59
2023-03-19T06:08:23.624Z,10.76
2023-03-19T06:11:00.705Z,10.40
2023-03-19T06:13:31.285Z,10.63
2023-03-19T06:16:12.595Z,10.71
2023-03-19T06:19:02.714Z,10.76
2023-03-19T06:21:32.429Z,10.60
2023-03-19T06:24:05.603Z,10.75
2023-03-19T06:26:38.405Z,10.76
2023-03-19T06:29:14.742Z,10.65
2023-03-19T06:31:49.618Z,10.88
2023-03-19T06:34:24.418Z,10.95
2023-03-19T06:36:54.146Z,11.02
2023-03-19T06:39:24.020Z,11.09
2023-03-19T06:41:53.742Z,10.80
2023-03-19T06:44:27.710Z,11.08
2023-03-19T06:47:00.002Z,11.11
2023-03-19T06:49:30.012Z,11.13
2023-03-19T06:51:59.804Z,11.10
2023-03-19T06:54:29.416Z,11.11
2023-03-19T06:56:59.173Z,11.16
2023-03-19T06:59:29.025Z,10.88
2023-03-19T07:02:02.240Z,11.12
2023-03-19T07:04:32.340Z,11.04
2023-03-19T07:07:02.628Z,11.09
2023-03-19T07:09:32.249Z,11.07
2023-03-19T07:12:01.916Z,11.11
2023-03-19T07:14:31.570Z,11.02
2023-03-19T07:17:03.801Z,11.24
2023-03-19T07:19:33.514Z,11.29
2023-03-19T07:22:03.869Z,11.31
2023-03-19T07:24:33.509Z,11.49
2023-03-19T07:27:03.313Z,11.41
2023-03-19T07:29:32.969Z,11.52
2023-03-19T07:32:05.819Z,11.63
2023-03-19T07:34:35.757Z,11.57
2023-03-19T07:37:05.580Z,11.57
2023-03-19T07:39:35.300Z,11.58
2023-03-19T07:42:04.930Z,11.80
2023-03-19T07:44:35.051Z,11.88
2023-03-19T07:47:16.108Z,12.04
2023-03-19T07:49:56.181Z,11.90
2023-03-19T07:52:25.988Z,12.25
2023-03-19T07:54:55.844Z,12.39
2023-03-19T07:57:25.839Z,12.55
2023-03-19T07:59:55.585Z,12.59
2023-03-19T08:02:28.025Z,12.89
2023-03-19T08:04:58.643Z,13.03
2023-03-19T08:07:28.376Z,13.11
2023-03-19T08:09:58.365Z,13.34
2023-03-19T08:12:28.410Z,13.33
2023-03-19T08:14:58.047Z,13.52
2023-03-19T08:17:30.282Z,13.42
2023-03-19T08:19:59.926Z,13.50
2023-03-19T08:22:29.544Z,13.59
2023-03-19T08:24:59.212Z,13.66
2023-03-19T08:27:30.655Z,13.62
2023-03-19T08:30:01.035Z,13.83
2023-03-19T08:32:33.442Z,13.91
2023-03-19T08:35:03.202Z,13.98
2023-03-19T08:37:32.921Z,13.95
2023-03-19T08:40:02.575Z,14.08
2023-03-19T08:42:32.290Z,14.02
2023-03-19T08:45:01.957Z,13.89
2023-03-19T08:47:34.186Z,14.24
2023-03-19T08:50:03.832Z,13.92
2023-03-19T08:52:33.683Z,14.42
2023-03-19T08:55:03.630Z,14.36
2023-03-19T08:57:33.355Z,14.67
2023-03-19T09:00:05.328Z,14.71
2023-03-19T09:02:37.600Z,14.78
2023-03-19T09:05:08.038Z,14.84
2023-03-19T09:07:37.677Z,14.52
2023-03-19T09:10:08.441Z,14.86
2023-03-19T09:12:38.064Z,14.87
2023-03-19T09:15:09.336Z,14.68
2023-03-19T09:17:41.938Z,14.82
2023-03-19T09:20:13.156Z,14.75
2023-03-19T09:22:42.882Z,14.55
2023-03-19T09:25:13.350Z,14.87
2023-03-19T09:27:42.965Z,14.93
2023-03-19T09:30:14.373Z,14.97
2023-03-19T09:32:46.687Z,14.95
2023-03-19T09:35:16.469Z,15.00
2023-03-19T09:37:46.375Z,15.10
2023-03-19T09:40:25.447Z,15.06
2023-03-19T09:43:09.453Z,15.03
2023-03-19T09:45:39.631Z,15.30
2023-03-19T09:48:18.421Z,15.34
2023-03-19T09:50:49.559Z,15.44
2023-03-19T09:53:32.678Z,15.65
2023-03-19T09:56:05.218Z,15.82
2023-03-19T09:58:38.820Z,15.89
2023-03-19T10:01:09.248Z,15.94
2023-03-19T10:03:49.920Z,15.93
2023-03-19T10:06:31.919Z,15.75
2023-03-19T10:09:27.403Z,15.87
2023-03-19T10:12:11.967Z,15.78
2023-03-19T10:15:00.356Z,15.82
2023-03-19T10:17:35.561Z,16.03
2023-03-19T10:20:13.168Z,15.86
2023-03-19T10:22:49.016Z,15.76
2023-03-19T10:25:22.897Z,15.79
2023-03-19T10:27:59.031Z,15.73
2023-03-19T10:30:29.103Z,15.78
2023-03-19T10:33:11.878Z,15.93
2023-03-19T10:35:47.292Z,16.12
2023-03-19T10:38:23.720Z,16.16
2023-03-19T10:41:06.928Z,16.15
2023-03-19T10:43:37.086Z,16.04
2023-03-19T10:46:07.125Z,16.40
2023-03-19T10:48:45.433Z,16.11
2023-03-19T10:51:19.879Z,16.74
2023-03-19T10:53:49.692Z,16.76
2023-03-19T10:56:23.202Z,16.66
2023-03-19T10:59:03.913Z,16.68
2023-03-19T11:01:36.576Z,16.45
2023-03-19T11:04:16.439Z,16.63
2023-03-19T11:06:52.618Z,16.37
2023-03-19T11:09:36.999Z,16.55
2023-03-19T11:12:19.258Z,16.75
2023-03-19T11:14:50.632Z,16.65
2023-03-19T11:17:24.193Z,16.70
2023-03-19T11:19:58.105Z,16.84
2023-03-19T11:22:32.890Z,16.88
2023-03-19T11:25:05.510Z,16.90
2023-03-19T11:27:37.216Z,16.77
2023-03-19T11:30:15.576Z,16.80
2023-03-19T11:33:06.586Z,16.70
2023-03-19T11:35:41.299Z,16.78
2023-03-19T11:38:22.187Z,16.85
2023-03-19T11:41:02.220Z,16.96
2023-03-19T11:43:46.957Z,16.93
2023-03-19T11:46:27.470Z,17.14
2023-03-19T11:49:39.356Z,17.17
2023-03-19T11:52:18.774Z,17.19
2023-03-19T11:55:05.612Z,17.28
2023-03-19T11:57:50.709Z,17.05
2023-03-19T12:00:32.989Z,17.14
2023-03-19T12:03:31.155Z,17.14
2023-03-19T12:06:05.595Z,17.00
2023-03-19T12:08:42.457Z,17.05
2023-03-19T12:11:23.556Z,17.09
2023-03-19T12:14:10.396Z,17.01
2023-03-19T12:16:52.194Z,17.08
2023-03-19T12:19:46.111Z,17.02
2023-03-19T12:22:26.629Z,17.12
2023-03-19T12:25:14.733Z,17.25
2023-03-19T12:27:54.852Z,17.07
2023-03-19T12:30:34.907Z,17.12
2023-03-19T12:33:19.448Z,16.78
2023-03-19T12:35:53.111Z,16.91
2023-03-19T12:38:27.849Z,16.91
2023-03-19T12:41:03.710Z,17.08
2023-03-19T12:43:40.650Z,16.91
2023-03-19T12:46:13.746Z,16.80
2023-03-19T12:48:47.880Z,16.80
2023-03-19T12:51:22.941Z,16.78
2023-03-19T12:53:57.377Z,16.74
2023-03-19T12:56:37.113Z,16.74
2023-03-19T12:59:19.082Z,16.70
2023-03-19T13:01:53.974Z,16.64
2023-03-19T13:04:28.071Z,16.85
2023-03-19T13:07:01.774Z,16.95
2023-03-19T13:09:35.383Z,16.78
2023-03-19T13:12:10.696Z,16.95
2023-03-19T13:14:52.894Z,17.06
2023-03-19T13:17:28.822Z,16.90
2023-03-19T13:19:58.963Z,16.97
2023-03-19T13:22:31.627Z,16.83
2023-03-19T13:25:03.662Z,17.00
2023-03-19T13:27:35.831Z,17.04
2023-03-19T13:30:22.106Z,17.05
2023-03-19T13:32:54.728Z,17.08
2023-03-19T13:35:36.622Z,17.06
2023-03-19T13:38:15.340Z,17.09
2023-03-19T13:40:50.122Z,16.97
2023-03-19T13:43:55.850Z,16.89
2023-03-19T13:46:45.848Z,16.78
2023-03-19T13:49:33.837Z,16.95
2023-03-19T13:52:25.466Z,16.86
2023-03-19T13:54:59.095Z,16.50
2023-03-19T13:57:38.534Z,16.92
2023-03-19T14:00:38.324Z,17.00
2023-03-19T14:03:09.905Z,16.67
2023-03-19T14:05:39.777Z,17.04
2023-03-19T14:08:20.768Z,17.07
2023-03-19T14:10:55.421Z,17.05
2023-03-19T14:13:32.665Z,17.01
2023-03-19T14:16:14.572Z,17.01
2023-03-19T14:18:46.192Z,17.25
2023-03-19T14:21:22.118Z,17.26
2023-03-19T14:23:57.783Z,17.24
2023-03-19T14:26:31.573Z,17.35
2023-03-19T14:29:04.169Z,17.33
2023-03-19T14:31:44.130Z,17.54
2023-03-19T14:34:23.482Z,17.61
2023-03-19T14:37:00.591Z,17.71
2023-03-19T14:39:32.827Z,18.00
2023-03-19T14:42:16.929Z,18.02
2023-03-19T14:45:20.727Z,17.91
2023-03-19T14:48:16.184Z,17.92
2023-03-19T14:51:02.789Z,17.71
2023-03-19T14:53:41.130Z,17.63
2023-03-19T14:56:17.432Z,17.64
2023-03-19T14:58:57.462Z,17.47
2023-03-19T15:01:29.607Z,17.59
2023-03-19T15:04:03.411Z,17.65
2023-03-19T15:06:36.938Z,17.52
2023-03-19T15:09:10.491Z,17.51
2023-03-19T15:11:53.771Z,17.62
2023-03-19T15:14:40.441Z,17.49
2023-03-19T15:17:18.903Z,17.55
2023-03-19T15:19:48.838Z,17.26
2023-03-19T15:22:23.391Z,17.60
2023-03-19T15:24:53.233Z,17.48
2023-03-19T15:27:24.636Z,17.44
2023-03-19T15:30:06.994Z,17.45
2023-03-19T15:32:54.180Z,17.45
2023-03-19T15:35:37.408Z,17.57
2023-03-19T15:38:11.767Z,17.50
2023-03-19T15:40:44.075Z,17.60
2023-03-19T15:43:15.623Z,17.63
2023-03-19T15:45:51.735Z,17.41
2023-03-19T15:48:24.912Z,17.63
2023-03-19T15:51:00.589Z,17.61
2023-03-19T15:53:35.390Z,17.63
2023-03-19T15:56:06.873Z,17.48
2023-03-19T15:58:42.708Z,17.47
2023-03-19T16:01:16.787Z,17.38
2023-03-19T16:03:49.394Z,17.20
2023-03-19T16:06:27.278Z,17.19
2023-03-19T16:08:59.024Z,17.23
2023-03-19T16:11:32.377Z,17.36
2023-03-19T16:14:03.584Z,17.31
2023-03-19T16:16:38.754Z,17.29
2023-03-19T16:19:08.520Z,17.33
2023-03-19T16:21:41.645Z,17.32
2023-03-19T16:24:24.232Z,17.28
2023-03-19T16:26:54.987Z,17.25
2023-03-19T16:29:28.018Z,17.27
2023-03-19T16:32:03.966Z,17.23
2023-03-19T16:34:42.586Z,17.10
2023-03-19T16:37:43.257Z,16.85
2023-03-19T16:40:43.932Z,16.72
2023-03-19T16:43:19.885Z,16.54
2023-03-19T16:45:54.074Z,16.66
2023-03-19T16:48:26.872Z,16.70
2023-03-19T16:50:57.466Z,16.65
2023-03-19T16:53:29.818Z,16.68
2023-03-19T16:56:01.889Z,16.60
2023-03-19T16:58:35.064Z,16.57
2023-03-19T17:01:05.837Z,16.51
2023-03-19T17:03:38.506Z,16.44
2023-03-19T17:06:09.565Z,16.46
2023-03-19T17:08:39.454Z,16.50
2023-03-19T17:11:14.099Z,16.51
2023-03-19T17:13:45.321Z,16.52
2023-03-19T17:16:15.799Z,16.54
2023-03-19T17:18:48.108Z,16.57
2023-03-19T17:21:21.227Z,16.48
2023-03-19T17:23:51.112Z,16.42
2023-03-19T17:26:25.939Z,16.33
2023-03-19T17:28:56.894Z,16.35
2023-03-19T17:31:30.048Z,16.33
2023-03-19T17:34:04.957Z,16.08
2023-03-19T17:36:36.051Z,16.35
2023-03-19T17:39:07.157Z,16.26
2023-03-19T17:41:36.886Z,16.11
2023-03-19T17:44:06.975Z,16.10
2023-03-19T17:46:42.297Z,16.17
2023-03-19T17:49:22.877Z,15.69
2023-03-19T17:51:53.757Z,15.54
2023-03-19T17:54:25.866Z,15.42
2023-03-19T17:56:56.527Z,15.24
2023-03-19T17:59:26.569Z,15.17
2023-03-19T18:01:56.261Z,14.92
2023-03-19T18:04:28.537Z,15.23
2023-03-19T18:06:58.992Z,15.05
2023-03-19T18:09:32.868Z,15.03
2023-03-19T18:12:02.789Z,15.02
2023-03-19T18:14:32.433Z,14.81
2023-03-19T18:17:02.869Z,14.76
2023-03-19T18:19:37.979Z,14.77
2023-03-19T18:22:15.537Z,14.82
2023-03-19T18:24:45.384Z,14.86
2023-03-19T18:27:15.922Z,14.89
2023-03-19T18:29:45.605Z,14.88
2023-03-19T18:32:19.604Z,15.00
2023-03-19T18:34:51.921Z,14.55
2023-03-19T18:37:22.501Z,14.92
2023-03-19T18:39:52.385Z,14.84
2023-03-19T18:42:23.585Z,14.80
2023-03-19T18:44:53.473Z,14.58
2023-03-19T18:47:23.177Z,14.70
2023-03-19T18:49:57.685Z,14.72
2023-03-19T18:52:27.811Z,14.58
2023-03-19T18:54:57.439Z,14.45
2023-03-19T18:57:27.108Z,14.66
2023-03-19T18:59:57.062Z,14.63
2023-03-19T19:02:34.192Z,14.49
2023-03-19T19:05:07.710Z,14.24
2023-03-19T19:07:37.364Z,14.26
2023-03-19T19:10:09.062Z,14.25
2023-03-19T19:12:40.507Z,14.16
2023-03-19T19:15:19.754Z,13.91
2023-03-19T19:17:49.583Z,14.13
2023-03-19T19:20:24.922Z,14.29
2023-03-19T19:22:54.943Z,14.26
2023-03-19T19:25:27.085Z,14.27
2023-03-19T19:28:02.896Z,14.26
2023-03-19T19:30:34.580Z,14.21
2023-03-19T19:33:04.722Z,14.03
2023-03-19T19:35:37.497Z,14.15
2023-03-19T19:38:07.256Z,14.08
2023-03-19T19:40:37.351Z,14.05
2023-03-19T19:43:07.192Z,13.86
2023-03-19T19:45:40.132Z,13.99
2023-03-19T19:48:17.550Z,13.92
2023-03-19T19:50:50.811Z,13.89
2023-03-19T19:53:23.845Z,13.64
2023-03-19T19:55:56.839Z,13.72
2023-03-19T19:58:31.049Z,13.68
2023-03-19T20:01:04.310Z,13.69
2023-03-19T20:03:36.139Z,13.65
2023-03-19T20:06:08.849Z,13.57
2023-03-19T20:08:38.542Z,13.56
2023-03-19T20:11:17.681Z,13.66
2023-03-19T20:13:52.057Z,13.51
2023-03-19T20:16:22.533Z,13.51
2023-03-19T20:18:53.906Z,13.75
2023-03-19T20:21:26.668Z,13.67
2023-03-19T20:23:58.911Z,13.70
2023-03-19T20:26:28.670Z,13.61
2023-03-19T20:28:58.356Z,13.46
2023-03-19T20:31:30.171Z,13.46
2023-03-19T20:34:01.025Z,13.40
2023-03-19T20:36:33.671Z,13.59
2023-03-19T20:39:03.724Z,13.42
2023-03-19T20:41:33.382Z,13.76
2023-03-19T20:44:05.722Z,13.89
2023-03-19T20:46:35.826Z,13.82
2023-03-19T20:49:06.408Z,13.60
2023-03-19T20:51:39.094Z,13.66
2023-03-19T20:54:08.729Z,13.57
2023-03-19T20:56:40.192Z,13.68
2023-03-19T20:59:13.945Z,13.54
2023-03-19T21:01:44.072Z,13.51
2023-03-19T21:04:21.175Z,13.43
2023-03-19T21:06:54.472Z,13.34
2023-03-19T21:09:27.406Z,13.19
2023-03-19T21:11:57.323Z,13.07
2023-03-19T21:14:27.582Z,12.91
2023-03-19T21:16:57.640Z,13.00
2023-03-19T21:19:28.700Z,12.80
2023-03-19T21:22:00.960Z,13.19
2023-03-19T21:24:31.301Z,13.20
2023-03-19T21:27:03.883Z,13.31
2023-03-19T21:29:35.906Z,13.24
2023-03-19T21:32:05.551Z,13.17
2023-03-19T21:34:35.550Z,13.24
2023-03-19T21:37:08.253Z,13.30
2023-03-19T21:39:38.409Z,13.33
2023-03-19T21:42:10.426Z,13.39
2023-03-19T21:44:41.141Z,13.37
2023-03-19T21:47:14.726Z,13.39
2023-03-19T21:49:44.411Z,13.25
2023-03-19T21:52:19.986Z,13.50
2023-03-19T21:54:49.891Z,13.35
2023-03-19T21:57:19.987Z,13.38
2023-03-19T21:59:49.902Z,13.34
2023-03-19T22:02:41.818Z,13.24
2023-03-19T22:05:20.024Z,13.08
2023-03-19T22:07:52.688Z,12.98
2023-03-19T22:10:24.725Z,12.96
2023-03-19T22:12:54.491Z,12.84
2023-03-19T22:15:30.410Z,12.86
2023-03-19T22:18:00.891Z,12.61
2023-03-19T22:20:30.946Z,12.78
2023-03-19T22:23:03.219Z,12.66
2023-03-19T22:25:40.669Z,12.64
2023-03-19T22:28:19.957Z,12.59
2023-03-19T22:30:50.462Z,12.55
2023-03-19T22:33:21.749Z,12.51
2023-03-19T22:35:52.628Z,12.43
2023-03-19T22:38:25.667Z,12.56
2023-03-19T22:40:57.353Z,12.57
2023-03-19T22:43:31.719Z,12.56
2023-03-19T22:46:04.278Z,12.47
2023-03-19T22:48:34.171Z,12.48
2023-03-19T22:51:04.231Z,12.57
2023-03-19T22:53:39.164Z,12.61
2023-03-19T22:56:09.388Z,12.69
2023-03-19T22:58:39.540Z,12.80
2023-03-19T23:01:31.088Z,12.69
2023-03-19T23:04:19.834Z,12.86
2023-03-19T23:06:50.019Z,12.76
2023-03-19T23:09:24.886Z,12.98
2023-03-19T23:11:55.010Z,12.72
2023-03-19T23:14:30.976Z,13.02
2023-03-19T23:17:03.885Z,13.02
2023-03-19T23:19:35.657Z,13.00
2023-03-19T23:22:07.307Z,13.07
2023-03-19T23:24:39.559Z,13.07
2023-03-19T23:27:09.275Z,13.07
2023-03-19T23:29:43.779Z,13.01
2023-03-19T23:32:18.505Z,12.99
2023-03-19T23:34:58.555Z,13.14
2023-03-19T23:37:30.147Z,13.09
2023-03-19T23:40:02.396Z,13.03
2023-03-19T23:42:34.553Z,13.07
2023-03-19T23:45:06.733Z,13.09
2023-03-19T23:47:37.043Z,13.02
2023-03-19T23:50:07.453Z,13.08
2023-03-19T23:52:37.076Z,13.14
2023-03-19T23:55:10.932Z,13.02
2023-03-19T23:57:41.954Z,13.01
